createdAt,value
2019-06-07T00:00:51.939Z,12.13
2019-06-07T00:03:27.435Z,10.73
2019-06-07T00:05:52.856Z,11.87
2019-06-07T00:08:27.943Z,11.30
2019-06-07T00:10:53.720Z,10.87
2019-06-07T00:13:23.687Z,11.00
2019-06-07T00:15:53.348Z,11.33
2019-06-07T00:18:25.967Z,10.43
2019-06-07T00:20:54.256Z,11.93
2019-06-07T00:23:23.729Z,12.90
2019-06-07T00:25:53.327Z,11.50
2019-06-07T00:28:23.000Z,11.30
2019-06-07T00:30:52.877Z,11.80
2019-06-07T00:33:24.512Z,12.00
2019-06-07T00:35:53.874Z,14.20
2019-06-07T00:38:23.354Z,11.20
2019-06-07T00:40:52.815Z,13.33
2019-06-07T00:43:27.978Z,12.27
2019-06-07T00:45:53.474Z,12.13
2019-06-07T00:48:31.320Z,13.37
2019-06-07T00:50:54.172Z,13.93
2019-06-07T00:53:31.875Z,13.80
2019-06-07T00:55:54.819Z,14.00
2019-06-07T00:58:27.613Z,13.53
2019-06-07T01:00:55.460Z,11.83
2019-06-07T01:03:25.901Z,13.20
2019-06-07T01:05:55.727Z,15.10
2019-06-07T01:08:29.903Z,13.77
2019-06-07T01:10:56.578Z,14.97
2019-06-07T01:13:26.906Z,12.97
2019-06-07T01:15:56.846Z,12.93
2019-06-07T01:18:37.372Z,13.00
2019-06-07T01:20:57.786Z,13.43
2019-06-07T01:25:58.529Z,13.23
2019-06-07T01:28:30.183Z,13.43
2019-06-07T01:30:59.487Z,12.30
2019-06-07T01:33:49.849Z,13.60
2019-06-07T01:36:00.615Z,13.20
2019-06-07T01:38:30.322Z,13.07
2019-06-07T01:40:59.831Z,11.70
2019-06-07T01:43:31.020Z,15.13
2019-06-07T01:46:00.486Z,12.67
2019-06-07T01:48:48.446Z,13.53
2019-06-07T01:51:01.107Z,14.60
2019-06-07T01:53:31.603Z,14.60
2019-06-07T01:56:01.406Z,15.07
2019-06-07T01:58:30.992Z,15.37
2019-06-07T02:01:00.731Z,15.33
2019-06-07T02:03:33.069Z,15.87
2019-06-07T02:06:01.565Z,15.83
2019-06-07T02:08:34.313Z,15.67
2019-06-07T02:11:02.744Z,15.97
2019-06-07T02:13:32.323Z,16.43
2019-06-07T02:16:01.948Z,15.57
2019-06-07T02:18:34.660Z,15.57
2019-06-07T02:21:02.735Z,14.90
2019-06-07T02:23:33.707Z,18.10
2019-06-07T02:26:03.615Z,15.67
2019-06-07T02:28:44.305Z,16.27
2019-06-07T02:31:04.500Z,15.83
2019-06-07T02:33:39.721Z,17.60
2019-06-07T02:36:05.275Z,16.30
2019-06-07T02:38:37.503Z,17.20
2019-06-07T02:41:06.784Z,14.10
2019-06-07T02:43:37.377Z,15.80
2019-06-07T02:46:25.036Z,16.00
2019-06-07T02:48:42.908Z,16.07
2019-06-07T02:51:12.373Z,14.63
2019-06-07T02:53:41.928Z,14.20
2019-06-07T02:56:37.871Z,15.47
2019-06-07T02:58:43.097Z,11.67
2019-06-07T03:01:12.697Z,13.07
2019-06-07T03:03:42.580Z,12.10
2019-06-07T03:06:14.317Z,11.40
2019-06-07T03:08:46.704Z,13.17
2019-06-07T03:11:17.106Z,9.90
2019-06-07T03:13:48.143Z,11.40
2019-06-07T03:16:36.785Z,10.60
2019-06-07T03:19:06.512Z,10.80
2019-06-07T03:21:41.445Z,11.17
2019-06-07T03:24:09.206Z,11.27
2019-06-07T03:27:30.490Z,12.47
2019-06-07T03:29:10.007Z,10.67
2019-06-07T03:31:45.985Z,12.17
2019-06-07T03:34:10.805Z,11.17
2019-06-07T03:36:40.420Z,11.03
2019-06-07T03:39:09.965Z,11.50
2019-06-07T03:41:50.274Z,10.00
2019-06-07T03:44:10.828Z,11.83
2019-06-07T03:46:41.615Z,10.53
2019-06-07T03:49:11.592Z,11.50
2019-06-07T03:51:41.257Z,11.33
2019-06-07T03:54:10.727Z,12.77
2019-06-07T03:56:41.025Z,13.40
2019-06-07T03:59:10.854Z,12.30
2019-06-07T04:01:41.288Z,10.93
2019-06-07T04:04:11.080Z,10.97
2019-06-07T04:06:42.562Z,9.43
2019-06-07T04:09:12.053Z,11.43
2019-06-07T04:11:41.512Z,9.23
2019-06-07T04:14:11.139Z,10.70
2019-06-07T04:16:44.413Z,10.53
2019-06-07T04:19:11.775Z,11.50
2019-06-07T04:21:42.946Z,13.03
2019-06-07T04:24:13.008Z,12.53
2019-06-07T04:26:43.749Z,13.57
2019-06-07T04:31:44.843Z,12.77
2019-06-07T04:34:14.363Z,13.10
2019-06-07T04:36:58.766Z,13.77
2019-06-07T04:39:17.811Z,15.17
2019-06-07T04:41:49.924Z,13.57
2019-06-07T04:44:21.443Z,12.90
2019-06-07T04:46:51.952Z,13.40
2019-06-07T04:49:22.982Z,11.17
2019-06-07T04:51:53.284Z,11.97
2019-06-07T04:54:22.749Z,11.17
2019-06-07T04:56:52.575Z,13.30
2019-06-07T05:00:01.038Z,12.83
2019-06-07T05:01:53.237Z,9.67
2019-06-07T05:04:22.687Z,10.80
2019-06-07T05:06:52.161Z,8.40
2019-06-07T05:09:21.619Z,10.77
2019-06-07T05:11:51.226Z,9.80
2019-06-07T05:14:20.676Z,11.17
2019-06-07T05:16:50.148Z,8.40
2019-06-07T05:19:19.599Z,9.60
2019-06-07T05:22:03.478Z,9.10
2019-06-07T05:24:20.505Z,8.70
2019-06-07T05:26:50.005Z,7.03
2019-06-07T05:29:19.610Z,6.77
2019-06-07T05:31:49.345Z,6.47
2019-06-07T05:34:18.871Z,5.33
2019-06-07T05:37:10.588Z,5.80
2019-06-07T05:39:19.804Z,6.67
2019-06-07T05:41:49.271Z,7.40
2019-06-07T05:44:18.725Z,5.83
2019-06-07T05:46:48.184Z,7.43
2019-06-07T05:49:17.639Z,6.00
2019-06-07T05:51:47.175Z,5.10
2019-06-07T05:54:16.637Z,5.03
2019-06-07T05:56:46.206Z,5.33
2019-06-07T05:59:15.669Z,5.53
2019-06-07T06:01:55.959Z,4.63
2019-06-07T06:04:16.373Z,3.50
2019-06-07T06:06:47.295Z,4.30
2019-06-07T06:09:17.260Z,3.40
2019-06-07T06:11:59.649Z,4.03
2019-06-07T06:14:17.967Z,4.17
2019-06-07T06:16:49.879Z,2.63
2019-06-07T06:19:18.632Z,2.50
2019-06-07T06:21:48.723Z,3.23
2019-06-07T06:24:18.324Z,3.30
2019-06-07T06:26:52.246Z,4.87
2019-06-07T06:29:18.947Z,6.00
2019-06-07T06:32:35.485Z,3.40
2019-06-07T06:34:19.576Z,3.90
2019-06-07T06:36:50.257Z,3.30
2019-06-07T06:39:20.113Z,2.63
2019-06-07T06:42:00.834Z,2.77
2019-06-07T06:44:21.080Z,2.47
2019-06-07T06:46:57.528Z,3.40
2019-06-07T06:49:21.712Z,2.50
2019-06-07T06:51:53.596Z,2.23
2019-06-07T06:54:39.546Z,1.80
2019-06-07T06:56:53.633Z,2.83
2019-06-07T06:59:40.031Z,87.00
2019-06-07T07:01:54.281Z,73.73
2019-06-07T07:04:23.764Z,159.83
2019-06-07T07:06:55.331Z,169.60
2019-06-07T07:09:26.042Z,185.90
2019-06-07T07:12:10.973Z,132.40
2019-06-07T07:14:26.756Z,142.33
2019-06-07T07:16:56.807Z,144.33
2019-06-07T07:19:26.594Z,90.03
2019-06-07T07:21:56.056Z,53.30
2019-06-07T07:24:25.613Z,78.27
2019-06-07T07:26:58.234Z,97.73
2019-06-07T07:29:26.280Z,91.70
2019-06-07T07:31:56.548Z,59.83
2019-06-07T07:34:36.351Z,74.10
2019-06-07T07:36:59.542Z,69.77
2019-06-07T07:39:28.757Z,81.27
2019-06-07T07:42:17.886Z,106.30
2019-06-07T07:44:29.419Z,110.73
2019-06-07T07:46:59.163Z,108.57
2019-06-07T07:49:28.651Z,162.00
2019-06-07T07:51:59.138Z,105.23
2019-06-07T07:54:28.905Z,223.43
2019-06-07T07:56:58.372Z,127.70
2019-06-07T07:59:41.954Z,116.20
2019-06-07T08:01:59.058Z,78.43
2019-06-07T08:05:12.114Z,3.80
2019-06-07T08:07:00.126Z,44.67
2019-06-07T08:09:29.604Z,92.07
2019-06-07T08:12:00.768Z,59.47
2019-06-07T08:14:30.358Z,47.30
2019-06-07T08:16:59.843Z,45.63
2019-06-07T08:19:29.324Z,77.20
2019-06-07T08:22:01.688Z,99.00
2019-06-07T08:24:30.139Z,91.93
2019-06-07T08:27:24.631Z,68.67
2019-06-07T08:29:44.475Z,59.70
2019-06-07T08:32:02.225Z,87.67
2019-06-07T08:34:31.757Z,87.13
2019-06-07T08:37:02.029Z,91.30
2019-06-07T08:39:31.705Z,82.83
2019-06-07T08:42:15.291Z,66.60
2019-06-07T08:44:32.424Z,12.97
2019-06-07T08:47:18.915Z,10.07
2019-06-07T08:49:33.068Z,48.80
2019-06-07T08:52:09.955Z,18.37
2019-06-07T08:54:33.924Z,44.97
2019-06-07T08:57:19.616Z,34.90
2019-06-07T08:59:34.885Z,149.40
2019-06-07T09:02:22.524Z,3.47
2019-06-07T09:04:35.709Z,3.40
2019-06-07T09:07:18.821Z,24.73
2019-06-07T09:09:36.713Z,12.43
2019-06-07T09:12:10.919Z,57.03
2019-06-07T09:14:59.103Z,57.20
2019-06-07T09:17:12.334Z,30.27
2019-06-07T09:19:40.447Z,16.53
2019-06-07T09:22:11.420Z,73.80
2019-06-07T09:24:41.418Z,42.67
2019-06-07T09:27:11.357Z,74.73
2019-06-07T09:29:41.284Z,23.17
2019-06-07T09:32:15.976Z,91.30
2019-06-07T09:34:41.933Z,60.77
2019-06-07T09:38:02.772Z,77.73
2019-06-07T09:39:42.925Z,66.47
2019-06-07T09:42:12.926Z,59.23
2019-06-07T09:44:42.646Z,73.47
2019-06-07T09:47:29.895Z,43.73
2019-06-07T09:49:43.426Z,44.80
2019-06-07T09:52:12.970Z,59.87
2019-06-07T09:55:04.372Z,79.40
2019-06-07T09:57:17.352Z,58.20
2019-06-07T09:59:46.805Z,64.27
2019-06-07T10:02:17.436Z,46.80
2019-06-07T10:04:46.900Z,50.73
2019-06-07T10:07:30.893Z,55.43
2019-06-07T10:12:19.280Z,17.67
2019-06-07T10:14:48.750Z,7.00
2019-06-07T10:17:18.389Z,7.70
2019-06-07T10:19:47.984Z,7.63
2019-06-07T10:22:17.454Z,32.30
2019-06-07T10:24:47.001Z,7.00
2019-06-07T10:27:16.471Z,8.10
2019-06-07T10:29:46.191Z,7.77
2019-06-07T10:32:15.651Z,12.40
2019-06-07T10:34:45.240Z,6.53
2019-06-07T10:37:15.763Z,6.43
2019-06-07T10:39:49.193Z,11.03
2019-06-07T10:42:16.818Z,34.17
2019-06-07T10:44:46.337Z,8.50
2019-06-07T10:47:15.800Z,10.50
2019-06-07T10:49:45.285Z,10.40
2019-06-07T10:52:14.781Z,14.43
2019-06-07T10:54:44.294Z,7.97
2019-06-07T10:57:16.032Z,14.63
2019-06-07T10:59:44.933Z,7.93
2019-06-07T11:02:14.412Z,7.70
2019-06-07T11:04:44.234Z,10.50
2019-06-07T11:07:14.548Z,8.27
2019-06-07T11:09:44.186Z,9.30
2019-06-07T11:12:15.308Z,7.33
2019-06-07T11:14:44.956Z,9.47
2019-06-07T11:17:15.717Z,13.37
2019-06-07T11:19:45.569Z,41.77
2019-06-07T11:22:15.141Z,7.27
2019-06-07T11:24:44.751Z,9.47
2019-06-07T11:27:16.289Z,12.67
2019-06-07T11:29:45.584Z,7.00
2019-06-07T11:32:15.451Z,11.43
2019-06-07T11:34:44.931Z,8.60
2019-06-07T11:37:16.183Z,14.40
2019-06-07T11:39:45.577Z,11.83
2019-06-07T11:42:15.051Z,6.57
2019-06-07T11:44:56.269Z,11.70
2019-06-07T11:47:15.933Z,11.00
2019-06-07T11:49:45.384Z,6.07
2019-06-07T11:52:15.770Z,5.57
2019-06-07T11:54:48.038Z,7.30
2019-06-07T11:57:17.319Z,9.00
2019-06-07T11:59:46.953Z,10.20
2019-06-07T12:02:17.617Z,10.57
2019-06-07T12:04:47.263Z,7.17
2019-06-07T12:07:17.658Z,7.47
2019-06-07T12:09:56.268Z,10.70
2019-06-07T12:12:20.456Z,7.00
2019-06-07T12:14:50.307Z,6.93
2019-06-07T12:17:19.860Z,6.30
2019-06-07T12:19:49.316Z,5.73
2019-06-07T12:22:20.067Z,11.70
2019-06-07T12:24:50.111Z,8.63
2019-06-07T12:27:20.742Z,9.40
2019-06-07T12:29:50.420Z,11.07
2019-06-07T12:32:21.440Z,10.03
2019-06-07T12:34:51.107Z,11.50
2019-06-07T12:37:23.909Z,12.30
2019-06-07T12:39:51.752Z,9.70
2019-06-07T12:42:22.635Z,10.27
2019-06-07T12:44:52.700Z,13.27
2019-06-07T12:47:23.241Z,15.63
2019-06-07T12:49:52.868Z,17.03
2019-06-07T12:52:23.426Z,15.73
2019-06-07T12:54:53.850Z,7.73
2019-06-07T12:57:24.175Z,21.90
2019-06-07T12:59:53.907Z,36.03
2019-06-07T13:02:24.077Z,12.80
2019-06-07T13:04:54.725Z,10.20
2019-06-07T13:07:24.380Z,8.80
2019-06-07T13:09:54.067Z,23.20
2019-06-07T13:12:23.799Z,57.97
2019-06-07T13:14:53.522Z,62.53
2019-06-07T13:17:24.175Z,62.20
2019-06-07T13:19:53.954Z,45.73
2019-06-07T13:22:24.420Z,61.60
2019-06-07T13:24:54.206Z,51.90
2019-06-07T13:27:24.528Z,26.27
2019-06-07T13:29:54.200Z,14.20
2019-06-07T13:32:23.937Z,21.50
2019-06-07T13:34:53.639Z,32.10
2019-06-07T13:37:23.456Z,45.63
2019-06-07T13:39:53.169Z,40.90
2019-06-07T13:42:22.894Z,32.17
2019-06-07T13:44:52.599Z,36.87
2019-06-07T13:47:23.124Z,37.97
2019-06-07T13:49:55.296Z,42.67
2019-06-07T13:52:24.260Z,40.63
2019-06-07T13:54:53.763Z,48.10
2019-06-07T13:57:24.374Z,14.13
2019-06-07T13:59:53.963Z,30.47
2019-06-07T14:02:25.663Z,19.67
2019-06-07T14:04:54.872Z,64.17
2019-06-07T14:07:26.377Z,41.73
2019-06-07T14:09:55.623Z,57.70
2019-06-07T14:12:26.197Z,69.13
2019-06-07T14:14:55.861Z,52.63
2019-06-07T14:17:25.385Z,43.80
2019-06-07T14:19:54.876Z,66.00
2019-06-07T14:22:24.825Z,49.43
2019-06-07T14:24:54.485Z,73.40
2019-06-07T14:27:25.380Z,88.80
2019-06-07T14:29:55.167Z,104.83
2019-06-07T14:32:26.492Z,58.37
2019-06-07T14:34:56.748Z,62.43
2019-06-07T14:37:26.846Z,72.17
2019-06-07T14:39:56.531Z,64.83
2019-06-07T14:42:27.110Z,77.13
2019-06-07T14:44:56.980Z,58.90
2019-06-07T14:47:27.851Z,65.77
2019-06-07T14:49:57.741Z,76.27
2019-06-07T14:52:28.384Z,96.43
2019-06-07T14:54:58.256Z,59.80
2019-06-07T14:57:29.027Z,76.33
2019-06-07T14:59:58.662Z,63.80
2019-06-07T15:02:28.426Z,75.50
2019-06-07T15:04:58.508Z,59.87
2019-06-07T15:07:28.699Z,58.17
2019-06-07T15:09:58.389Z,53.17
2019-06-07T15:12:29.220Z,42.00
2019-06-07T15:14:58.903Z,60.30
2019-06-07T15:17:28.664Z,31.67
2019-06-07T15:19:58.498Z,65.53
2019-06-07T15:22:28.169Z,61.00
2019-06-07T15:24:57.641Z,41.27
2019-06-07T15:27:27.262Z,78.03
2019-06-07T15:29:56.871Z,37.77
2019-06-07T15:32:28.115Z,27.73
2019-06-07T15:34:57.802Z,62.60
2019-06-07T15:37:28.368Z,22.93
2019-06-07T15:39:58.383Z,26.53
2019-06-07T15:42:42.705Z,24.27
2019-06-07T15:44:59.407Z,25.07
2019-06-07T15:47:29.575Z,25.40
2019-06-07T15:49:59.144Z,23.50
2019-06-07T15:52:28.744Z,24.07
2019-06-07T15:54:58.207Z,20.50
2019-06-07T15:57:27.701Z,27.77
2019-06-07T15:59:57.255Z,26.90
2019-06-07T16:02:26.732Z,25.13
2019-06-07T16:04:56.211Z,19.60
2019-06-07T16:07:25.688Z,21.87
2019-06-07T16:09:55.157Z,21.10
2019-06-07T16:12:24.842Z,20.23
2019-06-07T16:14:54.365Z,31.67
2019-06-07T16:17:23.847Z,21.20
2019-06-07T16:19:53.356Z,24.43
2019-06-07T16:22:22.835Z,18.63
2019-06-07T16:24:53.081Z,19.13
2019-06-07T16:27:22.731Z,21.30
2019-06-07T16:29:52.200Z,18.77
2019-06-07T16:32:21.680Z,40.23
2019-06-07T16:34:51.148Z,44.40
2019-06-07T16:37:20.635Z,42.83
2019-06-07T16:39:50.096Z,25.87
2019-06-07T16:42:19.576Z,23.80
2019-06-07T16:44:49.049Z,22.67
2019-06-07T16:47:18.606Z,22.90
2019-06-07T16:49:49.215Z,18.63
2019-06-07T16:52:18.837Z,47.70
2019-06-07T16:54:48.300Z,22.63
2019-06-07T16:57:18.081Z,20.03
2019-06-07T16:59:49.207Z,20.60
2019-06-07T17:02:19.156Z,37.37
2019-06-07T17:04:48.957Z,46.03
2019-06-07T17:07:18.431Z,20.67
2019-06-07T17:09:49.433Z,26.93
2019-06-07T17:12:19.224Z,21.47
2019-06-07T17:14:48.783Z,22.70
2019-06-07T17:17:18.361Z,21.37
2019-06-07T17:19:49.089Z,20.50
2019-06-07T17:22:19.097Z,21.70
2019-06-07T17:24:49.839Z,21.40
2019-06-07T17:27:19.748Z,18.70
2019-06-07T17:29:50.092Z,20.53
2019-06-07T17:32:19.797Z,20.00
2019-06-07T17:34:50.297Z,22.83
2019-06-07T17:37:20.021Z,23.93
2019-06-07T17:39:50.825Z,16.40
2019-06-07T17:42:20.498Z,16.70
2019-06-07T17:44:51.346Z,18.10
2019-06-07T17:47:21.093Z,17.07
2019-06-07T17:49:52.012Z,18.87
2019-06-07T17:52:21.950Z,15.60
2019-06-07T17:54:52.389Z,17.27
2019-06-07T17:57:22.074Z,19.47
2019-06-07T17:59:52.613Z,16.87
2019-06-07T18:02:22.782Z,14.40
2019-06-07T18:04:53.548Z,14.47
2019-06-07T18:07:24.660Z,15.00
2019-06-07T18:09:55.449Z,14.70
2019-06-07T18:12:25.067Z,14.57
2019-06-07T18:14:54.556Z,16.73
2019-06-07T18:17:34.083Z,15.10
2019-06-07T18:19:55.304Z,15.30
2019-06-07T18:22:24.892Z,13.83
2019-06-07T18:25:06.574Z,15.13
2019-06-07T18:27:36.097Z,14.37
2019-06-07T18:30:11.670Z,16.20
2019-06-07T18:32:41.179Z,18.73
2019-06-07T18:35:12.262Z,15.53
2019-06-07T18:37:41.792Z,16.20
2019-06-07T18:40:11.422Z,22.53
2019-06-07T18:42:41.114Z,19.83
2019-06-07T18:45:10.584Z,16.57
2019-06-07T18:47:40.136Z,12.53
2019-06-07T18:50:10.752Z,14.23
2019-06-07T18:52:41.985Z,15.40
2019-06-07T18:55:12.209Z,16.33
2019-06-07T18:57:41.739Z,16.83
2019-06-07T19:00:16.412Z,14.67
2019-06-07T19:02:47.438Z,16.03
2019-06-07T19:05:17.335Z,16.03
2019-06-07T19:07:48.296Z,16.67
2019-06-07T19:10:20.513Z,14.40
2019-06-07T19:12:50.936Z,12.80
2019-06-07T19:15:21.539Z,13.30
2019-06-07T19:17:52.119Z,15.40
2019-06-07T19:20:22.981Z,16.03
2019-06-07T19:22:52.583Z,15.90
2019-06-07T19:25:22.266Z,14.57
2019-06-07T19:27:52.722Z,13.40
2019-06-07T19:30:22.493Z,16.13
2019-06-07T19:32:53.138Z,14.83
2019-06-07T19:35:23.142Z,13.93
2019-06-07T19:37:53.785Z,24.73
2019-06-07T19:40:23.676Z,12.40
2019-06-07T19:42:54.087Z,28.17
2019-06-07T19:45:30.376Z,27.37
2019-06-07T19:47:56.441Z,15.50
2019-06-07T19:50:26.308Z,26.70
2019-06-07T19:52:57.050Z,16.87
2019-06-07T19:55:26.893Z,36.50
2019-06-07T19:57:57.508Z,47.60
2019-06-07T20:00:27.572Z,15.67
2019-06-07T20:02:57.812Z,20.97
2019-06-07T20:05:27.787Z,18.00
2019-06-07T20:07:58.484Z,15.50
2019-06-07T20:10:28.327Z,15.30
2019-06-07T20:12:58.656Z,14.47
2019-06-07T20:15:29.709Z,11.17
2019-06-07T20:17:59.423Z,13.10
2019-06-07T20:20:30.051Z,40.00
2019-06-07T20:23:00.946Z,15.20
2019-06-07T20:25:30.898Z,13.43
2019-06-07T20:28:01.398Z,12.10
2019-06-07T20:30:31.262Z,14.20
2019-06-07T20:33:01.825Z,13.90
2019-06-07T20:35:31.617Z,12.00
2019-06-07T20:38:01.559Z,15.43
2019-06-07T20:40:31.332Z,29.40
2019-06-07T20:43:01.484Z,15.10
2019-06-07T20:45:33.997Z,15.60
2019-06-07T20:48:04.065Z,20.33
2019-06-07T20:50:33.783Z,21.57
2019-06-07T20:53:03.694Z,27.13
2019-06-07T20:55:34.463Z,20.17
2019-06-07T20:58:05.438Z,7.57
2019-06-07T21:00:35.253Z,8.50
2019-06-07T21:03:05.316Z,3.77
2019-06-07T21:05:35.040Z,5.80
2019-06-07T21:08:08.119Z,5.37
2019-06-07T21:10:35.847Z,4.70
2019-06-07T21:13:05.887Z,4.60
2019-06-07T21:15:47.850Z,7.00
2019-06-07T21:18:16.276Z,8.33
2019-06-07T21:20:37.844Z,7.13
2019-06-07T21:23:07.324Z,21.17
2019-06-07T21:25:36.784Z,9.13
2019-06-07T21:28:07.237Z,17.53
2019-06-07T21:30:36.803Z,34.10
2019-06-07T21:33:07.542Z,9.60
2019-06-07T21:35:37.181Z,10.40
2019-06-07T21:38:07.769Z,10.23
2019-06-07T21:40:37.320Z,14.77
2019-06-07T21:43:08.620Z,13.57
2019-06-07T21:45:38.336Z,15.43
2019-06-07T21:48:08.822Z,17.40
2019-06-07T21:50:38.460Z,16.00
2019-06-07T21:53:08.595Z,18.27
2019-06-07T21:55:38.193Z,19.73
2019-06-07T21:58:09.013Z,13.30
2019-06-07T22:01:04.351Z,11.67
2019-06-07T22:03:34.065Z,11.40
2019-06-07T22:06:03.612Z,10.53
2019-06-07T22:08:33.323Z,12.43
2019-06-07T22:11:03.794Z,12.53
2019-06-07T22:13:33.701Z,8.97
2019-06-07T22:16:04.059Z,7.90
2019-06-07T22:18:33.647Z,9.03
2019-06-07T22:21:04.310Z,9.20
2019-06-07T22:23:33.921Z,6.50
2019-06-07T22:26:03.376Z,9.37
2019-06-07T22:28:32.848Z,8.30
2019-06-07T22:31:02.306Z,7.20
2019-06-07T22:33:31.852Z,8.17
2019-06-07T22:36:01.312Z,7.77
2019-06-07T22:38:30.850Z,6.90
2019-06-07T22:41:00.548Z,6.00
2019-06-07T22:43:30.107Z,8.70
2019-06-07T22:45:59.575Z,6.43
2019-06-07T22:48:29.106Z,5.73
2019-06-07T22:51:00.211Z,5.50
2019-06-07T22:53:29.844Z,5.63
2019-06-07T22:56:00.937Z,7.00
2019-06-07T22:58:30.775Z,8.80
2019-06-07T23:01:00.624Z,12.43
2019-06-07T23:03:30.096Z,9.33
2019-06-07T23:05:59.638Z,8.50
2019-06-07T23:08:29.315Z,6.40
2019-06-07T23:10:58.884Z,6.30
2019-06-07T23:13:28.352Z,7.10
2019-06-07T23:15:57.873Z,6.10
2019-06-07T23:18:27.345Z,7.10
2019-06-07T23:20:56.792Z,6.43
2019-06-07T23:23:26.585Z,9.80
2019-06-07T23:25:56.039Z,10.60
2019-06-07T23:28:25.584Z,9.07
2019-06-07T23:30:55.163Z,9.47
2019-06-07T23:33:24.777Z,11.20
2019-06-07T23:35:54.397Z,10.93
2019-06-07T23:38:24.017Z,11.00
2019-06-07T23:40:53.473Z,11.73
2019-06-07T23:43:22.953Z,11.70
2019-06-07T23:45:52.411Z,9.30
2019-06-07T23:48:21.867Z,9.53
2019-06-07T23:50:51.328Z,8.73
2019-06-07T23:53:22.050Z,8.17
2019-06-07T23:55:51.860Z,6.40
2019-06-07T23:58:22.246Z,5.47
